Tiempo atmosférico en la estación meteorológica de Navalvillar De Ibor, Cáceres (923 m.)



Fecha
DESCASC
Temp. máxima en grados centígrados (hora)
DESCASC
Temp. mínima en grados centígrados (hora)
DESCASC
Temp. media en grados centígrados
DESCASC
Racha de viento máxima en m/sg (hora)
DESCASC
Velocidad máxima media en intervalos de 10 minutos(hora)
DESCASC
Precipitaciones diarias en mm
DESCASC
Precipitaciones de 00:00 a 06:00 en mm
DESCASC
Precipitaciones de 06:00 a 12:00 en mm
DESCASC
Precipitaciones de 12:00 a 18:00 en mm
DESCASC
Precipitaciones de 18:00 a 24:00 en mm
DESCASC
13-06-2019 23.3 (18:50) 11 (03:00) 17.1 9.72 (15:20) 3.61 (15:10) 0 0 0 0 0
12-06-2019 23.6 (18:00) 9 (06:20) 16.3 6.67 (17:20) 3.06 (04:00) 0 0 0 0 0
11-06-2019 21.4 (14:40) 9.7 (07:30) 15.5 8.61 (15:50) 3.61 (15:30) 0 0 0 0 0
10-06-2019 23.3 (16:50) 9.6 (04:40) 16.4 8.89 (18:20) 3.06 (16:10) 0 0 0 0 0
09-06-2019 22.7 (16:50) 12 (00:00) 17.4 9.72 (17:20) 3.61 (18:50) 0 0 0 0 0
08-06-2019 23.9 (16:10) 9.3 (00:00) 16.6 6.94 (13:00) 3.33 (07:10) 0 0 0 0 0
07-06-2019 19 (18:40) 6 (00:00) 12.5 12.22 (01:10) 4.72 (00:10) 2.8 2.8 0 0 0
06-06-2019 19 (18:20) 6.8 (00:00) 12.9 14.72 (23:30) 5 (23:30) 0 0 0 0 0
05-06-2019 18 (18:10) 6.7 (00:00) 12.3 10.56 (11:50) 3.89 (14:50) 0 0 0 0 0
04-06-2019 23.4 (15:00) 13.6 (00:00) 18.5 8.89 (20:40) 3.33 (13:30) 0 0 0 0 0
03-06-2019 29 (16:20) 18.3 (00:00) 23.6 10 (16:30) 3.33 (16:30) 0 0 0 0 0
02-06-2019 30.4 (15:30) 18.6 (00:00) 24.5 6.39 (22:50) 3.33 (04:00) 0 0 0 0 0
01-06-2019 31 (17:30) 17.5 (00:00) 24.3 9.72 (04:40) 5.28 (01:50) 0 0 0 0 0
31-05-2019 29.9 (17:10) 18.3 (00:00) 24.1 5.83 (00:30) 3.06 (00:50) 0 0 0 0 0
30-05-2019 27.8 (19:00) 15.4 (00:00) 21.6 8.33 (06:20) 3.06 (06:20) 0 0 0 0 0
29-05-2019 25.1 (17:40) 14.1 (00:00) 19.6 8.61 (03:10) 3.06 (18:20) 0 0 0 0 0
28-05-2019 27 (17:10) 14.2 (00:00) 20.6 7.22 (23:50) 2.5 (20:50) 0 0 0 0 0
27-05-2019 27.4 (16:40) 15 (00:00) 21.2 8.61 (14:30) 3.33 (19:20) 0 0 0 0 0
26-05-2019 25.6 (17:50) 13.3 (00:00) 19.5 6.94 (00:30) 2.78 (09:40) 0 0 0 0 0
25-05-2019 23.1 (18:00) 10.5 (00:00) 16.8 9.17 (04:20) 3.61 (14:30) 0 0 0 0 0
24-05-2019 23.9 (17:30) 13.2 (00:00) 18.5 9.17 (23:59) 3.06 (23:50) 0 0 0 0 0
23-05-2019 25.4 (17:20) 14.1 (00:00) 19.8 9.17 (14:10) 3.61 (14:50) 0 0 0 0 0
22-05-2019 25.4 (17:00) 12 (00:00) 18.7 6.11 (15:40) 2.78 (15:40) 0 0 0 0 0
21-05-2019 23.4 (17:40) 10 (05:50) 16.7 6.11 (17:00) 2.78 (14:00) 0 0 0 0 0
20-05-2019 20.3 (15:30) 7.6 (07:20) 13.9 5.83 (16:10) 2.78 (16:40) 0 0 0 0 0
19-05-2019 18.5 (17:20) 4.6 (00:00) 11.5 7.78 (16:30) 3.61 (16:50) 0 0 0 0 0
18-05-2019 16.2 (15:40) 5.2 (00:00) 10.7 8.33 (17:10) 3.33 (16:40) 0 0 0 0 0
17-05-2019 16.4 (17:50) 4.8 (00:00) 10.6 10.83 (19:00) 3.89 (16:50) 0 0 0 0 0

Gráficas

Temp. máximas Temp. mínimas Temp. medias Precipitaciones Rachas de viento máximas Velocidades máximas media en intervalos de 10 minutos

Datos horarios

Fecha y hora oficial Temperatura (ºC) Velocidad del viento (km/h) Dirección del viento Racha (km/h) Dirección de racha Precipitación (mm) Presión (hPa) Tendencia (hPa) Humedad (%)
2019-06-15 23:00:00 14.7 5 Sudoeste 10 Sudoeste 0 -- -- 43
2019-06-15 22:00:00 16.3 4 Sur 12 Noroeste 0 -- -- 40
2019-06-15 21:00:00 20.7 3 Sudoeste 17 Oeste 0 -- -- 32
2019-06-15 20:00:00 22.6 5 Oeste 17 Oeste 0 -- -- 30
2019-06-15 19:00:00 22.5 8 Noroeste 16 Sudoeste 0 -- -- 30
2019-06-15 18:00:00 22.3 7 Oeste 22 Noroeste 0 -- -- 31
2019-06-15 17:00:00 22.3 7 Oeste 21 Sudoeste 0 -- -- 33
2019-06-15 16:00:00 21.3 5 Oeste 22 Noroeste 0 -- -- 36
2019-06-15 15:00:00 20.1 8 Noroeste 18 Oeste 0 -- -- 35
2019-06-15 14:00:00 19.2 7 Noroeste 18 Noroeste 0 -- -- 39
2019-06-15 13:00:00 18.1 8 Noroeste 19 Noroeste 0 -- -- 40
2019-06-15 12:00:00 17.2 5 Sur 22 Noroeste 0 -- -- 46
2019-06-15 11:00:00 15.6 6 Noroeste 15 Noroeste 0 -- -- 49
2019-06-15 10:00:00 14.4 5 Sur 12 Noroeste 0 -- -- 57
2019-06-15 09:00:00 12.8 6 Sudoeste 12 Sudoeste 0 -- -- 62
2019-06-15 08:00:00 9.1 5 Oeste 12 Sudoeste 0 -- -- 77
2019-06-15 07:00:00 8.1 4 Sudoeste 15 Sudoeste 0 -- -- 81
2019-06-15 06:00:00 8.7 3 Sudoeste 23 Sudoeste 0 -- -- 77
2019-06-15 05:00:00 9.1 10 Sudoeste 17 Sudoeste 0 -- -- 77
2019-06-15 04:00:00 9.4 7 Sudoeste 19 Sur 0 -- -- 75
2019-06-15 03:00:00 9.7 6 Sudoeste 18 Sudoeste 0 -- -- 73
2019-06-15 02:00:00 10.1 7 Sudoeste 27 Oeste 0 -- -- 74
2019-06-15 01:00:00 11 7 Sudoeste 22 Oeste 0 -- -- 69
2019-06-15 00:00:00 11.6 7 Sudoeste 22 Sudoeste 0 -- -- 66
2019-06-14 23:00:00 12.6 10 Oeste 26 Noroeste 0 -- -- 57
2019-06-14 22:00:00 13.6 10 Oeste 27 Oeste 0 -- -- 51
2019-06-14 21:00:00 15.3 9 Oeste 27 Oeste 0 -- -- 44
2019-06-14 20:00:00 17.2 10 Oeste 28 Noroeste 0 -- -- 41
2019-06-14 19:00:00 19.1 9 Oeste 33 Sudoeste 0 -- -- 39
2019-06-14 18:00:00 19.8 11 Oeste 29 Noroeste 0 -- -- 37
2019-06-14 17:00:00 19.5 8 Oeste 37 Sudoeste 0 -- -- 38
2019-06-14 16:00:00 18.1 12 Sudoeste 32 Oeste 0 -- -- 39
2019-06-14 15:00:00 17.9 9 Noroeste 30 Sur 0 -- -- 42
2019-06-14 14:00:00 16.1 12 Sudoeste 33 Sudoeste 0 -- -- 46
2019-06-14 13:00:00 15.7 12 Oeste 35 Oeste 0 -- -- 50
2019-06-14 12:00:00 16.4 9 Sur 22 Noroeste 0 -- -- 48
2019-06-14 11:00:00 16.6 6 Sudoeste 26 Sudoeste 0 -- -- 49
2019-06-14 10:00:00 15.5 5 Noroeste 21 Oeste 0 -- -- 51
2019-06-14 09:00:00 14.1 8 Oeste 18 Oeste 0 -- -- 55
2019-06-14 08:00:00 11.3 4 Noroeste 17 Sudoeste 0 -- -- 60
2019-06-14 07:00:00 9.7 4 Sudoeste 12 Sur 0 -- -- 63
2019-06-14 06:00:00 11.6 3 Oeste 14 Sudoeste 0 -- -- 58
2019-06-14 05:00:00 12.5 7 Sudoeste 22 Oeste 0 -- -- 56
2019-06-14 04:00:00 12.3 5 Oeste 13 Sudoeste 0 -- -- 57
2019-06-14 03:00:00 13 8 Sudoeste 23 Sudoeste 0 -- -- 55
2019-06-14 02:00:00 13.7 8 Sudoeste 21 Sur 0 -- -- 51
2019-06-14 01:00:00 15.1 8 Sudoeste 18 Sudoeste 0 -- -- 40
2019-06-14 00:00:00 16.8 7 Sudoeste 22 Oeste 0 -- -- 31
2019-06-13 23:00:00 16.4 5 Sudoeste 15 Sudoeste 0 -- -- 32
2019-06-13 22:00:00 17.3 5 Sudoeste 14 Oeste 0 -- -- 31
2019-06-13 21:00:00 19.1 5 Sudoeste 18 Noroeste 0 -- -- 29
2019-06-13 20:00:00 21.7 5 Sudoeste 25 Noroeste 0 -- -- 32
2019-06-13 19:00:00 23.1 8 Sudoeste 25 Oeste 0 -- -- 27
2019-06-13 18:00:00 23 8 Noroeste 28 Oeste 0 -- -- 30
2019-06-13 17:00:00 22.4 10 Oeste 28 Sudoeste 0 -- -- 34
2019-06-13 16:00:00 20.7 13 Oeste 35 Noroeste 0 -- -- 35
2019-06-13 15:00:00 21.8 11 Oeste 31 Noroeste 0 -- -- 33
2019-06-13 14:00:00 21.2 10 Sudoeste 27 Sudoeste 0 -- -- 35
2019-06-13 13:00:00 20.9 8 Oeste 30 Sudoeste 0 -- -- 29
2019-06-13 12:00:00 20.3 8 Sudoeste 17 Oeste 0 -- -- 29
2019-06-13 11:00:00 19.8 7 Noroeste 15 Este 0 -- -- 28
2019-06-13 10:00:00 19.6 4 Este 18 Sudeste 0 -- -- 29
2019-06-13 09:00:00 17.7 2 Nordeste 12 Noroeste 0 -- -- 28
2019-06-13 08:00:00 13.8 4 Oeste 12 Oeste 0 -- -- 27
2019-06-13 07:00:00 13.2 4 Sudeste 25 Oeste 0 -- -- 25
2019-06-13 06:00:00 14.8 8 Sudoeste 19 Oeste 0 -- -- 17
2019-06-13 05:00:00 14 5 Sudoeste 18 Oeste 0 -- -- 35
2019-06-13 04:00:00 12.8 5 Sudoeste 12 Sudoeste 0 -- -- 48
2019-06-13 03:00:00 11 0 Calma 9 Sur 0 -- -- 53
2019-06-13 02:00:00 13 4 Sudoeste 13 Sudoeste 0 -- -- 44
2019-06-13 01:00:00 14.2 5 Sudoeste 12 Sudoeste 0 -- -- 35
2019-06-13 00:00:00 16.1 5 Sudoeste 13 Oeste 0 -- -- 27
2019-06-12 23:00:00 17.1 5 Sudoeste 16 Sudoeste 0 -- -- 24
2019-06-12 22:00:00 17.1 5 Sur 14 Sudoeste 0 -- -- 26
2019-06-12 21:00:00 20.6 4 Nordeste 14 Noroeste 0 -- -- 25
2019-06-12 20:00:00 22.3 6 Sudoeste 21 Noroeste 0 -- -- 23
2019-06-12 19:00:00 23 5 Oeste 22 Sur 0 -- -- 23
2019-06-12 18:00:00 23.6 9 Norte 24 Oeste 0 -- -- 24
2019-06-12 17:00:00 23 9 Sudoeste 23 Noroeste 0 -- -- 25
2019-06-12 16:00:00 22.4 5 Norte 21 Sur 0 -- -- 24
2019-06-12 15:00:00 21.7 8 Sur 17 Sudoeste 0 -- -- 27
2019-06-12 14:00:00 20.8 9 Noroeste 22 Noroeste 0 -- -- 27
2019-06-12 13:00:00 19.8 5 Oeste 15 Noroeste 0 -- -- 31
2019-06-12 12:00:00 18.8 5 Sudoeste 13 Oeste 0 -- -- 33
2019-06-12 11:00:00 17.7 4 Noroeste 12 Sudeste 0 -- -- 32
2019-06-12 10:00:00 17.1 3 Sur 15 Sudoeste 0 -- -- 33
2019-06-12 09:00:00 15.8 3 Este 10 Sudeste 0 -- -- 36
2019-06-12 08:00:00 10.1 3 Noroeste 7 Sur 0 -- -- 46
2019-06-12 07:00:00 9 5 Sur 8 Sur 0 -- -- 47
2019-06-12 06:00:00 9.2 4 Sur 7 Sur 0 -- -- 46
2019-06-12 05:00:00 11.2 3 Sur 15 Sur 0 -- -- 41
2019-06-12 04:00:00 12.6 11 Sur 21 Sur 0 -- -- 37
2019-06-12 03:00:00 12.7 5 Sur 15 Nordeste 0 -- -- 36
2019-06-12 02:00:00 13.2 5 Sudeste 18 Este 0 -- -- 36
2019-06-12 01:00:00 13.4 5 Nordeste 22 Nordeste 0 -- -- 33
2019-06-12 00:00:00 14.2 6 Nordeste 22 Este 0 -- -- 30
2019-06-11 23:00:00 14.7 5 Sudeste 19 Sudeste 0 -- -- 28
2019-06-11 22:00:00 15.1 6 Este 18 Este 0 -- -- 27
2019-06-11 21:00:00 17.1 6 Norte 23 Norte 0 -- -- 26
2019-06-11 20:00:00 19.2 9 Norte 25 Norte 0 -- -- 26
2019-06-11 19:00:00 20.4 7 Norte 25 Norte 0 -- -- 29
2019-06-11 18:00:00 20.7 9 Norte 26 Norte 0 -- -- 33
2019-06-11 17:00:00 20.8 10 Norte 30 Nordeste 0 -- -- 33
2019-06-11 16:00:00 20.7 12 Norte 31 Norte 0 -- -- 38
2019-06-11 15:00:00 19.9 12 Norte 29 Norte 0 -- -- 40
2019-06-11 14:00:00 19.5 10 Norte 25 Oeste 0 -- -- 45
2019-06-11 13:00:00 20 6 Noroeste 18 Oeste 0 -- -- 41
2019-06-11 12:00:00 18.5 6 Noroeste 15 Noroeste 0 -- -- 51
2019-06-11 11:00:00 16.4 6 Oeste 16 Noroeste 0 -- -- 54
2019-06-11 10:00:00 15.6 6 Noroeste 15 Noroeste 0 -- -- 56
2019-06-11 09:00:00 14.1 4 Noroeste 10 Noroeste 0 -- -- 60
2019-06-11 08:00:00 10.3 3 Norte 5 Sudoeste 0 -- -- 72
2019-06-11 07:00:00 10.3 4 Sudoeste 8 Sudoeste 0 -- -- 71
2019-06-11 06:00:00 11.4 6 Sudoeste 20 Sudoeste 0 -- -- 66
2019-06-11 05:00:00 12.8 12 Sudoeste 21 Sudoeste 0 -- -- 60
2019-06-11 04:00:00 12.2 4 Sur 13 Sur 0 -- -- 62
2019-06-11 03:00:00 13.3 5 Sudoeste 14 Sudoeste 0 -- -- 55
2019-06-11 02:00:00 14.6 9 Sudoeste 18 Sudoeste 0 -- -- 49
2019-06-11 01:00:00 15.7 9 Sudoeste 20 Oeste 0 -- -- 44
2019-06-11 00:00:00 16.5 6 Sudoeste 20 Oeste 0 -- -- 41
2019-06-10 23:00:00 17.2 8 Sudoeste 24 Sudoeste 0 -- -- 34
2019-06-10 22:00:00 17.8 6 Sudoeste 18 Noroeste 0 -- -- 29
2019-06-10 21:00:00 20.1 6 Oeste 26 Noroeste 0 -- -- 26
2019-06-10 20:00:00 22.3 8 Oeste 26 Noroeste 0 -- -- 24
2019-06-10 19:00:00 22.7 10 Oeste 32 Noroeste 0 -- -- 26
2019-06-10 18:00:00 23.2 9 Oeste 25 Oeste 0 -- -- 28
2019-06-10 17:00:00 23.2 8 Noroeste 26 Oeste 0 -- -- 28
2019-06-10 16:00:00 22.7 8 Oeste 25 Oeste 0 -- -- 32
2019-06-10 15:00:00 22 6 Sudoeste 23 Sudoeste 0 -- -- 37
2019-06-10 14:00:00 20.9 6 Noroeste 21 Noroeste 0 -- -- 38
2019-06-10 13:00:00 20.3 9 Noroeste 21 Oeste 0 -- -- 43
2019-06-10 12:00:00 19.2 7 Noroeste 19 Noroeste 0 -- -- 49
2019-06-10 11:00:00 17.8 7 Oeste 17 Noroeste 0 -- -- 52
2019-06-10 10:00:00 16.7 6 Noroeste 11 Oeste 0 -- -- 53
2019-06-10 09:00:00 15.3 4 Noroeste 7 Noroeste 0 -- -- 56
2019-06-10 08:00:00 11 0 Calma 8 Sudoeste 0 -- -- 68
2019-06-10 07:00:00 9.7 6 Sudoeste 10 Sudoeste 0 -- -- 71
2019-06-10 06:00:00 9.8 3 Sur 9 Sudoeste 0 -- -- 70
2019-06-10 05:00:00 9.6 3 Sur 5 Sudeste 0 -- -- 74
2019-06-10 04:00:00 9.7 3 Sur 6 Sudoeste 0 -- -- 73
2019-06-10 03:00:00 10.6 4 Sur 9 Sudoeste 0 -- -- 69
2019-06-10 02:00:00 12.4 2 Sudoeste 10 Sudoeste 0 -- -- 62
2019-06-10 01:00:00 13.7 5 Sudoeste 14 Oeste 0 -- -- 57
2019-06-10 00:00:00 15.2 6 Oeste 21 Oeste 0 -- -- 51
2019-06-09 23:00:00 16.3 8 Oeste 20 Noroeste 0 -- -- 45
2019-06-09 22:00:00 17.5 6 Oeste 15 Sudoeste 0 -- -- 38
2019-06-09 21:00:00 19.5 5 Oeste 23 Oeste 0 -- -- 34
2019-06-09 20:00:00 20.6 10 Oeste 29 Oeste 0 -- -- 32
2019-06-09 19:00:00 21.5 10 Oeste 32 Noroeste 0 -- -- 32
2019-06-09 18:00:00 22.7 8 Oeste 35 Oeste 0 -- -- 34
2019-06-09 17:00:00 22.4 12 Oeste 31 Noroeste 0 -- -- 34
2019-06-09 16:00:00 21.7 12 Oeste 27 Oeste 0 -- -- 29
2019-06-09 15:00:00 21.7 11 Noroeste 28 Oeste 0 -- -- 26
2019-06-09 14:00:00 21.4 12 Noroeste 24 Sur 0 -- -- 29
2019-06-09 13:00:00 20.6 6 Noroeste 20 Noroeste 0 -- -- 24
2019-06-09 12:00:00 19.6 7 Noroeste 26 Oeste 0 -- -- 21
2019-06-09 11:00:00 19 10 Noroeste 21 Noroeste 0 -- -- 23
2019-06-09 10:00:00 17.1 5 Noroeste 17 Oeste 0 -- -- 35
2019-06-09 09:00:00 17 6 Oeste 23 Oeste 0 -- -- 27
2019-06-09 08:00:00 15.6 10 Sudoeste 27 Oeste 0 -- -- 31
2019-06-09 07:00:00 14 6 Sur 15 Sudeste 0 -- -- 35
2019-06-09 06:00:00 13.1 4 Sur 13 Sur 0 -- -- 45
2019-06-09 05:00:00 12 5 Sudoeste 11 Oeste 0 -- -- 53
2019-06-09 04:00:00 12.9 5 Sudoeste 13 Sudoeste 0 -- -- 63
2019-06-09 03:00:00 14.3 8 Sudoeste 19 Sudoeste 0 -- -- 59
2019-06-09 02:00:00 13.7 6 Sudoeste 16 Sudoeste 0 -- -- 53
2019-06-09 01:00:00 15.5 5 Sudoeste 13 Sudoeste 0 -- -- 36
2019-06-09 00:00:00 16.1 5 Sudoeste 13 Sur 0 -- -- 34
2019-06-08 23:00:00 16 5 Sur 10 Sudoeste 0 -- -- 33
2019-06-08 22:00:00 17 4 Sudoeste 13 Sudoeste 0 -- -- 32
2019-06-08 21:00:00 20.7 5 Oeste 14 Noroeste 0 -- -- 29
2019-06-08 20:00:00 23.2 6 Sudoeste 16 Sudoeste 0 -- -- 23
2019-06-08 19:00:00 23.4 8 Sudoeste 22 Sudoeste 0 -- -- 21
2019-06-08 18:00:00 23.5 6 Norte 21 Oeste 0 -- -- 23
2019-06-08 17:00:00 23.1 6 Oeste 22 Oeste 0 -- -- 22
2019-06-08 16:00:00 23.6 8 Sudoeste 21 Sudoeste 0 -- -- 25
2019-06-08 15:00:00 23.2 9 Oeste 24 Norte 0 -- -- 27
2019-06-08 14:00:00 22 8 Sudoeste 18 Oeste 0 -- -- 31
2019-06-08 13:00:00 20.1 10 Sudoeste 25 Oeste 0 -- -- 31
2019-06-08 12:00:00 20.8 3 Nordeste 13 Noroeste 0 -- -- 37
2019-06-08 11:00:00 18.8 4 Noroeste 14 Noroeste 0 -- -- 38
2019-06-08 10:00:00 17.3 7 Norte 13 Nordeste 0 -- -- 43
2019-06-08 09:00:00 16.3 2 Norte 8 Nordeste 0 -- -- 51
2019-06-08 08:00:00 12.3 3 Este 20 Sudeste 0 -- -- 50
2019-06-08 07:00:00 12 9 Sur 18 Sudeste 0 -- -- 45
2019-06-08 06:00:00 12.1 6 Sudeste 17 Sur 0 -- -- 49
2019-06-08 05:00:00 11.7 6 Sur 13 Sudoeste 0 -- -- 50
2019-06-08 04:00:00 11 5 Sur 12 Sur 0 -- -- 52
2019-06-08 03:00:00 9.3 6 Sur 8 Sudeste 0 -- -- 64
2019-06-08 02:00:00 9.3 4 Sur 6 Sur 0 -- -- 63
2019-06-08 01:00:00 9.8 4 Sur 8 Sur 0 -- -- 60
2019-06-08 00:00:00 10.1 5 Sudoeste 8 Sudoeste 0 -- -- 59
2019-06-07 23:00:00 10.9 4 Sudoeste 9 Sudoeste 0 -- -- 55
2019-06-07 22:00:00 13.2 5 Sudoeste 15 Oeste 0 -- -- 49
2019-06-07 21:00:00 16.5 5 Oeste 19 Noroeste 0 -- -- 39
2019-06-07 20:00:00 18.7 6 Noroeste 19 Oeste 0 -- -- 35
2019-06-07 19:00:00 18.9 9 Norte 22 Noroeste 0 -- -- 37
2019-06-07 18:00:00 18.9 6 Noroeste 23 Noroeste 0 -- -- 37
2019-06-07 17:00:00 18 10 Oeste 26 Norte 0 -- -- 38
2019-06-07 16:00:00 17.4 10 Noroeste 23 Noroeste 0 -- -- 40
2019-06-07 15:00:00 17.1 9 Norte 21 Norte 0 -- -- 41
2019-06-07 14:00:00 15.7 6 Noroeste 24 Noroeste 0 -- -- 41
2019-06-07 13:00:00 14.2 9 Noroeste 25 Noroeste 0 -- -- 47
2019-06-07 12:00:00 12.8 7 Oeste 24 Noroeste 0 -- -- 55
2019-06-07 11:00:00 11.5 8 Oeste 24 Sudoeste 0 -- -- 69
2019-06-07 10:00:00 9.5 9 Oeste 24 Oeste 0 -- -- 75
2019-06-07 09:00:00 8.5 6 Oeste 18 Sudoeste 0 -- -- 85
2019-06-07 08:00:00 6.4 3 Noroeste 18 Oeste 0 -- -- 96
2019-06-07 07:00:00 6.1 4 Sudoeste 21 Noroeste 0 -- -- 94
2019-06-07 06:00:00 6.4 5 Oeste 22 Noroeste 0 -- -- 93
2019-06-07 05:00:00 6.8 8 Oeste 30 Noroeste 0 -- -- 89
2019-06-07 04:00:00 7.9 10 Sudoeste 30 Oeste 0.4 -- -- 94
2019-06-07 03:00:00 7.8 11 Oeste 39 Sudoeste 1.4 -- -- 90
2019-06-07 02:00:00 9.4 11 Oeste 44 Sur 1 -- -- 95
2019-06-07 01:00:00 13.3 14 Oeste 39 Oeste 0 -- -- 77
2019-06-07 00:00:00 13.8 16 Oeste 53 Oeste 0 -- -- 69
2019-06-06 23:00:00 15 13 Oeste 37 Sudoeste 0 -- -- 58
2019-06-06 22:00:00 15.6 12 Oeste 42 Oeste 0 -- -- 54
2019-06-06 21:00:00 16.5 11 Noroeste 40 Oeste 0 -- -- 48
2019-06-06 20:00:00 18.6 12 Oeste 26 Sur 0 -- -- 39
2019-06-06 19:00:00 18.7 11 Sur 39 Oeste 0 -- -- 39
2019-06-06 18:00:00 18.7 11 Oeste 30 Oeste 0 -- -- 40
2019-06-06 17:00:00 18.2 12 Sudoeste 44 Oeste 0 -- -- 40
2019-06-06 16:00:00 17.8 8 Sudoeste 27 Sudoeste 0 -- -- 37
2019-06-06 15:00:00 17.6 11 Oeste 26 Noroeste 0 -- -- 39
2019-06-06 14:00:00 17.6 11 Noroeste 26 Oeste 0 -- -- 36
2019-06-06 13:00:00 16.1 9 Sudoeste 21 Oeste 0 -- -- 42
2019-06-06 12:00:00 15.5 5 Sudoeste 16 Norte 0 -- -- 46
2019-06-06 11:00:00 14.1 8 Sudoeste 19 Sudoeste 0 -- -- 44
2019-06-06 10:00:00 13.1 6 Noroeste 14 Norte 0 -- -- 50
2019-06-06 09:00:00 11.9 3 Norte 14 Sudeste 0 -- -- 52
2019-06-06 08:00:00 8.3 4 Sur 12 Sudoeste 0 -- -- 59
2019-06-06 07:00:00 6.8 3 Sudeste 15 Sudoeste 0 -- -- 71
2019-06-06 06:00:00 8.9 5 Sudoeste 17 Sudoeste 0 -- -- 58
2019-06-06 05:00:00 8.9 5 Oeste 17 Sur 0 -- -- 62
2019-06-06 04:00:00 8.4 3 Sudoeste 15 Noroeste 0 -- -- 64
2019-06-06 03:00:00 9.1 4 Noroeste 19 Sudoeste 0 -- -- 60
2019-06-06 02:00:00 9.9 7 Sudoeste 24 Sudoeste 0 -- -- 57
2019-06-06 01:00:00 10.5 5 Sudoeste 15 Oeste 0 -- -- 55
2019-06-06 00:00:00 11.5 6 Sudoeste 17 Oeste 0 -- -- 49
2019-06-05 23:00:00 12.4 6 Sudoeste 17 Oeste 0 -- -- 45
2019-06-05 22:00:00 13.3 7 Oeste 22 Oeste 0 -- -- 42
2019-06-05 21:00:00 14.5 4 Sudoeste 18 Oeste 0 -- -- 43
2019-06-05 20:00:00 17.2 9 Noroeste 26 Oeste 0 -- -- 37
2019-06-05 19:00:00 17.9 9 Noroeste 27 Noroeste 0 -- -- 38
2019-06-05 18:00:00 17.8 9 Sudoeste 29 Noroeste 0 -- -- 40
2019-06-05 17:00:00 16.6 11 Noroeste 28 Oeste 0 -- -- 44
2019-06-05 16:00:00 16.1 11 Oeste 28 Noroeste 0 -- -- 43
2019-06-05 15:00:00 15.6 13 Noroeste 28 Oeste 0 -- -- 44
2019-06-05 14:00:00 14.9 11 Oeste 31 Noroeste 0 -- -- 53
2019-06-05 13:00:00 14.4 12 Noroeste 30 Oeste 0 -- -- 53
2019-06-05 12:00:00 13.6 13 Noroeste 38 Oeste 0 -- -- 51
2019-06-05 11:00:00 12.9 13 Noroeste 33 Oeste 0 -- -- 54
2019-06-05 10:00:00 11.3 11 Oeste 29 Oeste 0 -- -- 63
2019-06-05 09:00:00 9.6 11 Oeste 27 Noroeste 0 -- -- 72
2019-06-05 08:00:00 7.3 8 Oeste 27 Oeste 0 -- -- 81
2019-06-05 07:00:00 6.8 5 Noroeste 22 Noroeste 0 -- -- 84
2019-06-05 06:00:00 7.3 8 Oeste 25 Oeste 0 -- -- 81
2019-06-05 05:00:00 7.8 8 Oeste 27 Oeste 0 -- -- 79
2019-06-05 04:00:00 8.4 9 Oeste 21 Oeste 0 -- -- 80
2019-06-05 03:00:00 8.9 8 Sudoeste 26 Oeste 0 -- -- 76
2019-06-05 02:00:00 10.5 9 Oeste 29 Oeste 0 -- -- 65
2019-06-05 01:00:00 12.5 6 Oeste 22 Noroeste 0 -- -- 67
2019-06-05 00:00:00 13.6 6 Oeste 21 Oeste 0 -- -- 68
2019-06-04 23:00:00 14.2 6 Oeste 20 Oeste 0 -- -- 69
2019-06-04 22:00:00 15.3 5 Oeste 19 Noroeste 0 -- -- 71
2019-06-04 21:00:00 17.4 7 Oeste 32 Oeste 0 -- -- 66
2019-06-04 20:00:00 19.4 9 Oeste 25 Noroeste 0 -- -- 56
2019-06-04 19:00:00 20.1 6 Oeste 21 Oeste 0 -- -- 51
2019-06-04 18:00:00 21.4 10 Oeste 29 Oeste 0 -- -- 49
2019-06-04 17:00:00 21.8 10 Oeste 27 Oeste 0 -- -- 48
2019-06-04 16:00:00 22.2 11 Oeste 27 Oeste 0 -- -- 47
2019-06-04 15:00:00 23.4 9 Noroeste 26 Oeste 0 -- -- 45
2019-06-04 14:00:00 22.3 9 Sur 27 Oeste 0 -- -- 47
2019-06-04 13:00:00 21.9 7 Sur 20 Sudoeste 0 -- -- 51
2019-06-04 12:00:00 21.1 7 Sur 20 Sudeste 0 -- -- 55
2019-06-04 11:00:00 20.3 8 Oeste 19 Oeste 0 -- -- 47
2019-06-04 10:00:00 19.6 7 Sudeste 19 Sur 0 -- -- 28
2019-06-04 09:00:00 17.6 6 Sudoeste 21 Sur 0 -- -- 55
2019-06-04 08:00:00 15.8 7 Sudoeste 23 Sudeste 0 -- -- 65
2019-06-04 07:00:00 15.9 4 Sudoeste 17 Oeste 0 -- -- 67
2019-06-04 06:00:00 16.6 5 Sudoeste 20 Sur 0 -- -- 66
2019-06-04 05:00:00 16.2 4 Noroeste 16 Sur 0 -- -- 78
2019-06-04 04:00:00 16.1 4 Sudoeste 17 Oeste 0 -- -- 76
2019-06-04 03:00:00 16.6 3 Sudoeste 12 Sur 0 -- -- 70
2019-06-04 02:00:00 18.9 4 Sudoeste 16 Oeste 0 -- -- 63
2019-06-04 01:00:00 20.1 6 Sudoeste 19 Oeste 0 -- -- 58
2019-06-04 00:00:00 21 5 Sudoeste 13 Oeste 0 -- -- 48
2019-06-03 23:00:00 22.2 6 Sudoeste 21 Oeste 0 -- -- 38
2019-06-03 22:00:00 23.2 8 Sudoeste 17 Sudoeste 0 -- -- 31
2019-06-03 21:00:00 25.6 5 Oeste 19 Sur 0 -- -- 26
2019-06-03 20:00:00 27.7 7 Oeste 26 Oeste 0 -- -- 23
2019-06-03 19:00:00 28.3 9 Este 25 Sudoeste 0 -- -- 23
2019-06-03 18:00:00 28.8 8 Oeste 36 Oeste 0 -- -- 25
2019-06-03 17:00:00 28.7 11 Oeste 36 Oeste 0 -- -- 24
2019-06-03 16:00:00 28.4 10 Sudoeste 27 Oeste 0 -- -- 25
2019-06-03 15:00:00 28 10 Oeste 28 Oeste 0 -- -- 25
2019-06-03 14:00:00 27.9 6 Sudoeste 17 Oeste 0 -- -- 26
2019-06-03 13:00:00 26.9 7 Sudoeste 27 Oeste 0 -- -- 25
2019-06-03 12:00:00 26.2 8 Noroeste 21 Noroeste 0 -- -- 29
2019-06-03 11:00:00 24.9 3 Sur 13 Oeste 0 -- -- 26
2019-06-03 10:00:00 24.6 6 Sudoeste 17 Oeste 0 -- -- 22
2019-06-03 09:00:00 22.5 3 Oeste 7 Sudoeste 0 -- -- 29
2019-06-03 08:00:00 19.2 2 Sur 9 Sur 0 -- -- 37
2019-06-03 07:00:00 18.3 4 Sudoeste 10 Sudoeste 0 -- -- 27
2019-06-03 06:00:00 18.5 4 Sudoeste 8 Sudoeste 0 -- -- 28
2019-06-03 05:00:00 19.2 0 Calma 8 Oeste 0 -- -- 30
2019-06-03 04:00:00 20.4 3 Sudoeste 14 Sudoeste 0 -- -- 28
2019-06-03 03:00:00 20.3 4 Sudoeste 13 Oeste 0 -- -- 32
2019-06-03 02:00:00 20.7 3 Sudoeste 13 Sudoeste 0 -- -- 37
2019-06-03 01:00:00 22.2 5 Sudoeste 15 Sudoeste 0 -- -- 33
2019-06-03 00:00:00 22.8 6 Sudoeste 13 Oeste 0 -- -- 32
2019-06-02 23:00:00 24 5 Oeste 23 Oeste 0 -- -- 31
2019-06-02 22:00:00 23.2 4 Sudeste 10 Este 0 -- -- 36
2019-06-02 21:00:00 24.1 3 Sudeste 14 Sudoeste 0 -- -- 39
2019-06-02 20:00:00 27.4 5 Sudoeste 13 Sudoeste 0 -- -- 31
2019-06-02 19:00:00 28.7 6 Sudoeste 20 Sur 0 -- -- 30
2019-06-02 18:00:00 30.2 7 Oeste 17 Noroeste 0 -- -- 26
2019-06-02 17:00:00 29.7 3 Sudeste 18 Oeste 0 -- -- 26
2019-06-02 16:00:00 29.4 5 Noroeste 16 Sudeste 0 -- -- 29
2019-06-02 15:00:00 29.7 5 Noroeste 14 Sur 0 -- -- 27
2019-06-02 14:00:00 28.9 5 Oeste 15 Noroeste 0 -- -- 28
2019-06-02 13:00:00 28.6 3 Noroeste 10 Noroeste 0 -- -- 36
2019-06-02 12:00:00 27 3 Oeste 9 Oeste 0 -- -- 34
2019-06-02 11:00:00 25.4 4 Noroeste 9 Noroeste 0 -- -- 37
2019-06-02 10:00:00 24.4 0 Calma 5 Noroeste 0 -- -- 33
2019-06-02 09:00:00 23 0 Calma 5 Oeste 0 -- -- 54
2019-06-02 08:00:00 19.6 3 Sur 6 Sur 0 -- -- 49
2019-06-02 07:00:00 19.2 5 Sur 8 Sur 0 -- -- 40
2019-06-02 06:00:00 18.8 3 Sur 13 Sur 0 -- -- 41
2019-06-02 05:00:00 19.6 7 Sur 14 Sudeste 0 -- -- 36
2019-06-02 04:00:00 21.2 12 Sur 19 Sur 0 -- -- 34
2019-06-02 03:00:00 20.4 5 Sur 8 Sudeste 0 -- -- 37
2019-06-02 02:00:00 20.5 6 Sur 8 Sur 0 -- -- 40
2019-06-02 01:00:00 20.6 6 Sur 8 Sur 0 -- -- 38
2019-06-02 00:00:00 21.2 5 Sur 7 Sur 0 -- -- 36
2019-06-01 23:00:00 21.8 4 Sudeste 7 Sudeste 0 -- -- 36
2019-06-01 22:00:00 23.8 5 Sudeste 12 Sudeste 0 -- -- 30
2019-06-01 21:00:00 25.7 2 Sudoeste 11 Noroeste 0 -- -- 32
2019-06-01 20:00:00 28.7 2 Norte 8 Sur 0 -- -- 28
2019-06-01 19:00:00 30.8 4 Oeste 10 Sudeste 0 -- -- 27
2019-06-01 18:00:00 30.8 7 Norte 21 Norte 0 -- -- 25
2019-06-01 17:00:00 30.4 8 Noroeste 20 Noroeste 0 -- -- 22
2019-06-01 16:00:00 29.9 7 Norte 24 Oeste 0 -- -- 26
2019-06-01 15:00:00 29.2 8 Sudoeste 17 Sudoeste 0 -- -- 30
2019-06-01 14:00:00 28.4 6 Sur 18 Noroeste 0 -- -- 29
2019-06-01 13:00:00 28.1 5 Noroeste 16 Oeste 0 -- -- 33
2019-06-01 12:00:00 26.5 6 Noroeste 10 Norte 0 -- -- 33
2019-06-01 11:00:00 24.7 4 Noroeste 8 Noroeste 0 -- -- 39
2019-06-01 10:00:00 23.8 4 Noroeste 7 Noroeste 0 -- -- 35
2019-06-01 09:00:00 21.9 0 Calma 4 Este 0 -- -- 44
2019-06-01 08:00:00 17.8 3 Sur 8 Sudoeste 0 -- -- 48
2019-06-01 07:00:00 18.6 0 Calma 11 Norte 0 -- -- 37
2019-06-01 06:00:00 19.6 2 Sur 28 Sur 0 -- -- 35
2019-06-01 05:00:00 22.4 16 Sur 35 Sur 0 -- -- 29
2019-06-01 04:00:00 21.3 2 Nordeste 24 Sudeste 0 -- -- 29
2019-06-01 03:00:00 23.2 15 Sur 30 Sudeste 0 -- -- 24
2019-06-01 02:00:00 23.6 19 Sur 30 Sur 0 -- -- 24
2019-06-01 01:00:00 23.2 16 Sur 26 Sudeste 0 -- -- 25
2019-06-01 00:00:00 22.4 7 Sur 14 Sur 0 -- -- 27
2019-05-31 23:00:00 22.1 3 Sudeste 8 Sur 0 -- -- 29
2019-05-31 22:00:00 22.2 3 Sudeste 6 Sudeste 0 -- -- 28
2019-05-31 21:00:00 25.1 2 Sudeste 10 Norte 0 -- -- 31
2019-05-31 20:00:00 28.9 3 Norte 13 Norte 0 -- -- 28
2019-05-31 19:00:00 29.4 6 Norte 18 Norte 0 -- -- 23
2019-05-31 18:00:00 29.5 7 Norte 18 Norte 0 -- -- 22
2019-05-31 17:00:00 29.6 3 Nordeste 18 Norte 0 -- -- 28
2019-05-31 16:00:00 29.1 5 Norte 19 Norte 0 -- -- 26
2019-05-31 15:00:00 28.3 6 Norte 17 Norte 0 -- -- 30
2019-05-31 14:00:00 27.4 6 Sur 13 Sudeste 0 -- -- 31
2019-05-31 13:00:00 27 5 Sudeste 15 Norte 0 -- -- 30
2019-05-31 12:00:00 25.9 3 Sur 12 Noroeste 0 -- -- 35
2019-05-31 11:00:00 23.9 4 Noroeste 10 Noroeste 0 -- -- 41
2019-05-31 10:00:00 23.6 3 Noroeste 8 Norte 0 -- -- 40
2019-05-31 09:00:00 21.5 3 Oeste 6 Noroeste 0 -- -- 42
2019-05-31 08:00:00 19 2 Sur 10 Sur 0 -- -- 44
2019-05-31 07:00:00 18.4 5 Sur 12 Sudeste 0 -- -- 39
2019-05-31 06:00:00 18.4 5 Sur 14 Sur 0 -- -- 37
2019-05-31 05:00:00 18.9 6 Sur 18 Sudeste 0 -- -- 34
2019-05-31 04:00:00 19.4 4 Sudeste 13 Sur 0 -- -- 35
2019-05-31 03:00:00 20 5 Sudeste 12 Sur 0 -- -- 35
2019-05-31 02:00:00 20.1 5 Sudeste 17 Sur 0 -- -- 35
2019-05-31 01:00:00 21.8 11 Sur 21 Sur 0 -- -- 32
2019-05-31 00:00:00 20.6 5 Sur 9 Sudeste 0 -- -- 34
2019-05-30 23:00:00 21.2 5 Sur 8 Sudeste 0 -- -- 29
2019-05-30 22:00:00 22.1 4 Sur 8 Sudeste 0 -- -- 27
2019-05-30 21:00:00 24.9 4 Sudeste 14 Sur 0 -- -- 24
2019-05-30 20:00:00 27.1 5 Este 19 Este 0 -- -- 26
2019-05-30 19:00:00 27.8 6 Norte 18 Nordeste 0 -- -- 27
2019-05-30 18:00:00 27.4 7 Nordeste 22 Norte 0 -- -- 24
2019-05-30 17:00:00 26.9 6 Norte 26 Norte 0 -- -- 26
2019-05-30 16:00:00 26.5 6 Norte 23 Norte 0 -- -- 28
2019-05-30 15:00:00 25.5 7 Nordeste 22 Norte 0 -- -- 33
2019-05-30 14:00:00 24.8 5 Nordeste 28 Nordeste 0 -- -- 32
2019-05-30 13:00:00 23.1 10 Norte 24 Nordeste 0 -- -- 34
2019-05-30 12:00:00 21.8 9 Norte 23 Este 0 -- -- 39
2019-05-30 11:00:00 20.3 7 Nordeste 21 Nordeste 0 -- -- 38
2019-05-30 10:00:00 19.4 6 Nordeste 16 Este 0 -- -- 39
2019-05-30 09:00:00 18.2 4 Este 16 Nordeste 0 -- -- 40
2019-05-30 08:00:00 16.3 8 Este 24 Este 0 -- -- 37
2019-05-30 07:00:00 15.5 10 Sudeste 30 Nordeste 0 -- -- 39
2019-05-30 06:00:00 15.9 9 Nordeste 30 Este 0 -- -- 41
2019-05-30 05:00:00 16.4 7 Sur 16 Nordeste 0 -- -- 47
2019-05-30 04:00:00 16.6 5 Sur 15 Sudeste 0 -- -- 47
2019-05-30 03:00:00 17.2 7 Sudeste 26 Norte 0 -- -- 45
2019-05-30 02:00:00 18.1 10 Este 24 Este 0 -- -- 39
2019-05-30 01:00:00 19 8 Sudeste 22 Este 0 -- -- 35
2019-05-30 00:00:00 19.2 7 Sudeste 21 Sudeste 0 -- -- 35
2019-05-29 23:00:00 20 4 Este 21 Este 0 -- -- 35
2019-05-29 22:00:00 20.9 5 Este 17 Norte 0 -- -- 33
2019-05-29 21:00:00 22.2 5 Nordeste 17 Noroeste 0 -- -- 32
2019-05-29 20:00:00 24.2 7 Norte 20 Nordeste 0 -- -- 31
2019-05-29 19:00:00 24.8 9 Norte 23 Norte 0 -- -- 32
2019-05-29 18:00:00 24.8 10 Norte 20 Norte 0 -- -- 30
2019-05-29 17:00:00 24.8 7 Sudeste 19 Norte 0 -- -- 29
2019-05-29 16:00:00 23.7 7 Este 23 Norte 0 -- -- 33
2019-05-29 15:00:00 22.6 8 Nordeste 24 Este 0 -- -- 35
2019-05-29 14:00:00 21.3 9 Nordeste 29 Este 0 -- -- 37
2019-05-29 13:00:00 19.8 9 Nordeste 27 Norte 0 -- -- 39
2019-05-29 12:00:00 18.4 10 Norte 24 Nordeste 0 -- -- 41
2019-05-29 11:00:00 17.4 9 Norte 28 Este 0 -- -- 43
2019-05-29 10:00:00 16.3 9 Sudeste 26 Nordeste 0 -- -- 44
2019-05-29 09:00:00 15.4 9 Este 28 Nordeste 0 -- -- 46
2019-05-29 08:00:00 14.2 9 Sur 27 Este 0 -- -- 47
2019-05-29 07:00:00 14.2 10 Sur 30 Este 0 -- -- 47
2019-05-29 06:00:00 14.2 9 Sur 26 Nordeste 0 -- -- 47
2019-05-29 05:00:00 14.6 9 Sudeste 26 Nordeste 0 -- -- 46
2019-05-29 04:00:00 15.2 9 Sudeste 31 Este -- -- -- 43
2019-05-29 03:00:00 16.4 7 Sur 27 Este 0 -- -- 39
2019-05-29 02:00:00 17 9 Norte 29 Nordeste 0 -- -- 38
2019-05-29 01:00:00 17.3 9 Nordeste 25 Nordeste 0 -- -- 38
2019-05-29 00:00:00 18.1 8 Nordeste 26 Este 0 -- -- 39
2019-05-28 23:00:00 19.6 6 Nordeste 24 Nordeste 0 -- -- 33
2019-05-28 22:00:00 20.4 6 Nordeste 21 Norte 0 -- -- 31
2019-05-28 21:00:00 22.4 7 Norte 21 Nordeste 0 -- -- 29
2019-05-28 20:00:00 25.6 8 Norte 17 Norte 0 -- -- 30
2019-05-28 19:00:00 26.5 5 Norte 16 Nordeste 0 -- -- 33
2019-05-28 18:00:00 26.6 7 Norte 21 Noroeste 0 -- -- 34
2019-05-28 17:00:00 26.7 8 Norte 17 Noroeste 0 -- -- 35
2019-05-28 16:00:00 25.8 3 Oeste 19 Norte 0 -- -- 34
2019-05-28 15:00:00 25.4 8 Norte 16 Norte 0 -- -- 38
2019-05-28 14:00:00 24.9 7 Norte 16 Norte 0 -- -- 42
2019-05-28 13:00:00 24.1 8 Norte 18 Norte 0 -- -- 42
2019-05-28 12:00:00 23.2 4 Este 14 Norte 0 -- -- 43
2019-05-28 11:00:00 21.6 8 Norte 16 Nordeste 0 -- -- 49
2019-05-28 10:00:00 21 4 Nordeste 11 Nordeste 0 -- -- 50
2019-05-28 09:00:00 19.4 0 Calma 3 Noroeste 0 -- -- 54
2019-05-28 08:00:00 15 0 Calma 6 Sur 0 -- -- 66
2019-05-28 07:00:00 14.2 3 Sur 6 Sur 0 -- -- 61
2019-05-28 06:00:00 14.7 3 Sur 6 Sur 0 -- -- 59
2019-05-28 05:00:00 17.3 0 Calma 12 Sudeste 0 -- -- 50
2019-05-28 04:00:00 19 8 Sur 14 Sur 0 -- -- 44
2019-05-28 03:00:00 19 5 Sur 15 Sudeste 0 -- -- 44
2019-05-28 02:00:00 19.2 4 Sur 12 Este 0 -- -- 43
2019-05-28 01:00:00 18.6 4 Sur 8 Sur 0 -- -- 46
2019-05-28 00:00:00 18 0 Calma 8 Sur 0 -- -- 51
2019-05-27 23:00:00 19.4 4 Sudoeste 8 Sur 0 -- -- 46
2019-05-27 22:00:00 21 3 Oeste 16 Noroeste 0 -- -- 41
2019-05-27 21:00:00 23.3 5 Noroeste 21 Noroeste 0 -- -- 38
2019-05-27 20:00:00 25.8 6 Noroeste 25 Noroeste 0 -- -- 34
2019-05-27 19:00:00 26.3 8 Noroeste 29 Noroeste 0 -- -- 35
2019-05-27 18:00:00 26.9 8 Noroeste 28 Noroeste 0 -- -- 35
2019-05-27 17:00:00 26.7 11 Noroeste 25 Norte 0 -- -- 36
2019-05-27 16:00:00 26.6 8 Oeste 29 Oeste 0 -- -- 38
2019-05-27 15:00:00 25.6 7 Noroeste 31 Noroeste 0 -- -- 37
2019-05-27 14:00:00 25.5 7 Noroeste 27 Noroeste 0 -- -- 37
2019-05-27 13:00:00 25.3 8 Noroeste 24 Noroeste 0 -- -- 36
2019-05-27 12:00:00 24.4 5 Noroeste 15 Oeste 0 -- -- 40
2019-05-27 11:00:00 23.4 5 Noroeste 12 Noroeste 0 -- -- 41
2019-05-27 10:00:00 22.6 4 Oeste 9 Noroeste 0 -- -- 40
2019-05-27 09:00:00 20.7 0 Calma 5 Este 0 -- -- 50
2019-05-27 08:00:00 15.5 2 Sur 6 Sur 0 -- -- 58
2019-05-27 07:00:00 15.4 3 Sur 8 Sudeste 0 -- -- 54
2019-05-27 06:00:00 16.1 5 Sur 7 Sur 0 -- -- 52
2019-05-27 05:00:00 17.9 2 Sudeste 19 Sur 0 -- -- 45
2019-05-27 04:00:00 19.2 10 Sur 18 Sudeste 0 -- -- 39
2019-05-27 03:00:00 18.9 4 Sudoeste 13 Sudeste 0 -- -- 38
2019-05-27 02:00:00 19.4 3 Sudeste 14 Este 0 -- -- 38
2019-05-27 01:00:00 19 2 Sur 12 Este 0 -- -- 39
2019-05-27 00:00:00 19.4 3 Sudeste 15 Nordeste 0 -- -- 41
2019-05-26 23:00:00 19.4 4 Este 15 Sudeste 0 -- -- 40
2019-05-26 22:00:00 19.4 3 Nordeste 14 Norte 0 -- -- 43
2019-05-26 21:00:00 22.4 3 Norte 13 Norte 0 -- -- 41
2019-05-26 20:00:00 24.7 6 Norte 14 Nordeste 0 -- -- 38
2019-05-26 19:00:00 25.3 6 Norte 17 Norte 0 -- -- 37
2019-05-26 18:00:00 25.5 5 Nordeste 19 Norte 0 -- -- 36
2019-05-26 17:00:00 25.3 6 Norte 18 Nordeste 0 -- -- 38
2019-05-26 16:00:00 24.5 8 Nordeste 22 Norte 0 -- -- 39
2019-05-26 15:00:00 23.8 7 Norte 19 Noroeste 0 -- -- 39
2019-05-26 14:00:00 22.7 6 Nordeste 19 Noroeste 0 -- -- 43
2019-05-26 13:00:00 21.2 7 Norte 20 Norte 0 -- -- 44
2019-05-26 12:00:00 19.8 10 Norte 24 Noroeste 0 -- -- 45
2019-05-26 11:00:00 18.9 8 Norte 21 Norte 0 -- -- 49
2019-05-26 10:00:00 17.6 7 Nordeste 22 Sudeste 0 -- -- 46
2019-05-26 09:00:00 15.7 6 Nordeste 16 Nordeste 0 -- -- 50
2019-05-26 08:00:00 13.3 5 Este 17 Este 0 -- -- 55
2019-05-26 07:00:00 13.7 4 Oeste 20 Este 0 -- -- 51
2019-05-26 06:00:00 14.3 6 Sudeste 21 Este 0 -- -- 50
2019-05-26 05:00:00 14.8 6 Este 20 Nordeste 0 -- -- 49
2019-05-26 04:00:00 15.6 8 Sudeste 22 Sudeste 0 -- -- 44
2019-05-26 03:00:00 15.9 8 Sudeste 24 Nordeste 0 -- -- 42
2019-05-26 02:00:00 17.1 9 Sudeste 23 Sudeste 0 -- -- 40
2019-05-26 01:00:00 16.9 9 Sudeste 25 Sur 0 -- -- 40
2019-05-26 00:00:00 16.8 6 Sudeste 19 Sudeste 0 -- -- 42
2019-05-25 23:00:00 17.2 5 Nordeste 17 Norte 0 -- -- 40
2019-05-25 22:00:00 17.2 0 Calma 13 Noroeste 0 -- -- 44
2019-05-25 21:00:00 20 5 Norte 14 Noroeste 0 -- -- 39
2019-05-25 20:00:00 22.2 7 Norte 20 Norte 0 -- -- 32
2019-05-25 19:00:00 23 8 Norte 22 Norte 0 -- -- 31
2019-05-25 18:00:00 23.1 9 Norte 23 Norte 0 -- -- 34
2019-05-25 17:00:00 22.3 11 Norte 22 Norte 0 -- -- 34
2019-05-25 16:00:00 21.6 11 Norte 23 Norte 0 -- -- 36
2019-05-25 15:00:00 20.5 12 Norte 29 Noroeste 0 -- -- 40
2019-05-25 14:00:00 19.6 11 Norte 26 Noroeste 0 -- -- 42
2019-05-25 13:00:00 18.7 11 Norte 28 Norte 0 -- -- 44
2019-05-25 12:00:00 17.5 8 Nordeste 21 Nordeste 0 -- -- 49
2019-05-25 11:00:00 16 7 Nordeste 20 Norte 0 -- -- 51
2019-05-25 10:00:00 15 6 Nordeste 21 Nordeste 0 -- -- 57
2019-05-25 09:00:00 13.3 9 Sudeste 27 Este 0 -- -- 60
2019-05-25 08:00:00 10.8 8 Sudeste 22 Sudeste 0 -- -- 68
2019-05-25 07:00:00 10.7 5 Sudeste 21 Sudeste 0 -- -- 67
2019-05-25 06:00:00 11.2 8 Sur 29 Nordeste 0 -- -- 65
2019-05-25 05:00:00 11.7 9 Sur 33 Sudeste 0 -- -- 62
2019-05-25 04:00:00 12.1 10 Este 31 Nordeste 0 -- -- 58
2019-05-25 03:00:00 13.7 10 Este 33 Este 0 -- -- 50
2019-05-25 02:00:00 14.4 11 Este 31 Sudeste 0 -- -- 48
2019-05-25 01:00:00 15.2 10 Nordeste 32 Este 0 -- -- 42
2019-05-25 00:00:00 16.1 11 Este 33 Este 0 -- -- 36
2019-05-24 23:00:00 16.8 8 Este 26 Noroeste 0 -- -- 41
2019-05-24 22:00:00 18 6 Nordeste 27 Norte 0 -- -- 36
2019-05-24 21:00:00 20 8 Norte 17 Este 0 -- -- 36
2019-05-24 20:00:00 22.7 6 Norte 22 Norte 0 -- -- 32
2019-05-24 19:00:00 23.2 8 Norte 21 Norte 0 -- -- 31
2019-05-24 18:00:00 23.6 10 Norte 22 Norte 0 -- -- 31
2019-05-24 17:00:00 23.7 6 Nordeste 23 Norte 0 -- -- 38
2019-05-24 16:00:00 23.5 7 Norte 21 Norte 0 -- -- 38
2019-05-24 15:00:00 22.9 9 Norte 23 Este 0 -- -- 42
2019-05-24 14:00:00 22.2 6 Nordeste 19 Nordeste 0 -- -- 47
2019-05-24 13:00:00 20.9 9 Norte 24 Nordeste 0 -- -- 48
2019-05-24 12:00:00 19.7 9 Norte 22 Nordeste 0 -- -- 54
2019-05-24 11:00:00 18.7 7 Norte 24 Nordeste 0 -- -- 60
2019-05-24 10:00:00 17.3 7 Norte 18 Nordeste 0 -- -- 60
2019-05-24 09:00:00 14.1 0 Calma 11 Oeste 0 -- -- 72
2019-05-24 08:00:00 13.9 3 Sur 6 Sur 0 -- -- 70
2019-05-24 07:00:00 13.2 4 Sudoeste 7 Sudoeste 0 -- -- 69
2019-05-24 06:00:00 13.7 4 Sur 8 Sur 0 -- -- 68
2019-05-24 05:00:00 13.4 3 Sur 4 Sur 0 -- -- 69
2019-05-24 04:00:00 13.5 0 Calma 4 Sur 0 -- -- 69
2019-05-24 03:00:00 13.7 2 Sudeste 4 Sudeste 0 -- -- 69
2019-05-24 02:00:00 14.2 2 Sudeste 7 Sudoeste 0 -- -- 66
2019-05-24 01:00:00 15.5 3 Sudoeste 14 Sur 0 -- -- 62
2019-05-24 00:00:00 16.9 6 Sudoeste 13 Oeste 0 -- -- 54
2019-05-23 23:00:00 18.3 6 Sudoeste 17 Sur 0 -- -- 45
2019-05-23 22:00:00 20 4 Oeste 14 Sudoeste 0 -- -- 38
2019-05-23 21:00:00 21.9 6 Sudoeste 16 Noroeste 0 -- -- 34
2019-05-23 20:00:00 23.1 6 Oeste 24 Oeste 0 -- -- 31
2019-05-23 19:00:00 25.2 8 Noroeste 25 Noroeste 0 -- -- 31
2019-05-23 18:00:00 25 10 Noroeste 24 Oeste 0 -- -- 30
2019-05-23 17:00:00 24.9 9 Sudoeste 27 Sur 0 -- -- 33
2019-05-23 16:00:00 24.9 10 Oeste 30 Oeste 0 -- -- 36
2019-05-23 15:00:00 24 9 Oeste 33 Sudeste 0 -- -- 38
2019-05-23 14:00:00 24.4 8 Noroeste 31 Sudoeste 0 -- -- 39
2019-05-23 13:00:00 23.4 10 Noroeste 25 Oeste 0 -- -- 41
2019-05-23 12:00:00 22.7 6 Sudoeste 18 Oeste 0 -- -- 44
2019-05-23 11:00:00 21.8 4 Oeste 14 Oeste 0 -- -- 43
2019-05-23 10:00:00 19.5 2 Sudoeste 8 Sudoeste 0 -- -- 46
2019-05-23 09:00:00 19.2 0 Calma 4 Sur 0 -- -- 49
2019-05-23 08:00:00 15 3 Sur 7 Sur 0 -- -- 70
2019-05-23 07:00:00 14.1 3 Sur 8 Sudoeste 0 -- -- 70
2019-05-23 06:00:00 14.8 5 Sudoeste 10 Sudoeste 0 -- -- 66
2019-05-23 05:00:00 14.9 3 Sur 8 Sudoeste 0 -- -- 65
2019-05-23 04:00:00 14.6 4 Sudoeste 7 Sudoeste 0 -- -- 65
2019-05-23 03:00:00 14.9 4 Sudoeste 10 Sur 0 -- -- 62
2019-05-23 02:00:00 16.2 4 Sudoeste 10 Sudoeste 0 -- -- 54
2019-05-23 01:00:00 16.8 5 Sur 8 Sur 0 -- -- 49
2019-05-23 00:00:00 17.3 3 Sur 9 Sudoeste 0 -- -- 46
2019-05-22 23:00:00 18 4 Sur 8 Sudoeste 0 -- -- 44
2019-05-22 22:00:00 19.5 4 Sur 12 Sur 0 -- -- 42
2019-05-22 21:00:00 21.5 4 Sudoeste 10 Sudeste 0 -- -- 37
2019-05-22 20:00:00 23.1 4 Sudoeste 14 Oeste 0 -- -- 37
2019-05-22 19:00:00 24 3 Oeste 12 Noroeste 0 -- -- 38
2019-05-22 18:00:00 24.4 6 Noroeste 19 Noroeste 0 -- -- 34
2019-05-22 17:00:00 25.4 9 Noroeste 22 Noroeste 0 -- -- 34
2019-05-22 16:00:00 24.7 6 Noroeste 22 Noroeste 0 -- -- 37
2019-05-22 15:00:00 22.2 3 Norte 20 Norte 0 -- -- 43
2019-05-22 14:00:00 22.8 5 Norte 15 Sudoeste 0 -- -- 40
2019-05-22 13:00:00 22.8 7 Noroeste 17 Oeste 0 -- -- 39
2019-05-22 12:00:00 21.6 6 Oeste 15 Sudoeste 0 -- -- 41
2019-05-22 11:00:00 20.8 5 Noroeste 10 Noroeste 0 -- -- 49
2019-05-22 10:00:00 19.7 3 Norte 6 Norte 0 -- -- 52
2019-05-22 09:00:00 17.6 0 Calma 3 Sur 0 -- -- 57
2019-05-22 08:00:00 13.1 0 Calma 4 Sur 0 -- -- 70
2019-05-22 07:00:00 12.3 5 Sur 6 Sur 0 -- -- 66
2019-05-22 06:00:00 12.8 2 Sudeste 7 Sudeste 0 -- -- 63
2019-05-22 05:00:00 12.9 3 Sudeste 7 Sur 0 -- -- 63
2019-05-22 04:00:00 12.8 3 Sur 6 Sudoeste 0 -- -- 64
2019-05-22 03:00:00 12.8 4 Sur 8 Sudoeste 0 -- -- 59
2019-05-22 02:00:00 14 4 Sudoeste 6 Sudoeste 0 -- -- 54
2019-05-22 01:00:00 14.2 4 Sur 7 Sudoeste 0 -- -- 55
2019-05-22 00:00:00 14.7 4 Sudoeste 9 Sudoeste 0 -- -- 53
2019-05-21 23:00:00 15.2 4 Sudoeste 7 Sudoeste 0 -- -- 50
2019-05-21 22:00:00 16.5 3 Sudoeste 8 Sudoeste 0 -- -- 46
2019-05-21 21:00:00 19.7 2 Oeste 15 Sudoeste 0 -- -- 40
2019-05-21 20:00:00 22.4 4 Oeste 17 Oeste 0 -- -- 34
2019-05-21 19:00:00 22.6 9 Noroeste 21 Noroeste 0 -- -- 34
2019-05-21 18:00:00 22.9 8 Noroeste 22 Noroeste 0 -- -- 38
2019-05-21 17:00:00 22 8 Oeste 22 Noroeste 0 -- -- 38
2019-05-21 16:00:00 22.5 9 Noroeste 21 Oeste 0 -- -- 38
2019-05-21 15:00:00 21.4 6 Oeste 19 Noroeste 0 -- -- 42
2019-05-21 14:00:00 20.3 10 Noroeste 21 Noroeste 0 -- -- 43
2019-05-21 13:00:00 19.7 6 Oeste 17 Noroeste 0 -- -- 44
2019-05-21 12:00:00 18.9 8 Noroeste 16 Noroeste 0 -- -- 48
2019-05-21 11:00:00 17.7 6 Noroeste 13 Noroeste 0 -- -- 43
2019-05-21 10:00:00 16.9 4 Oeste 10 Oeste 0 -- -- 46
2019-05-21 09:00:00 15.5 0 Calma 6 Norte 0 -- -- 48
2019-05-21 08:00:00 12.3 3 Sudeste 17 Sudoeste 0 -- -- 55
2019-05-21 07:00:00 12.4 9 Sudoeste 17 Sur 0 -- -- 53
2019-05-21 06:00:00 10 4 Sur 9 Sudoeste 0 -- -- 63
2019-05-21 05:00:00 10.2 5 Sudoeste 10 Sudoeste 0 -- -- 62
2019-05-21 04:00:00 11.4 0 Calma 10 Sudoeste 0 -- -- 58
2019-05-21 03:00:00 11.4 4 Sudoeste 12 Sudoeste 0 -- -- 58
2019-05-21 02:00:00 11.3 5 Sudoeste 9 Sudoeste 0 -- -- 58
2019-05-21 01:00:00 11.8 3 Sur 8 Sudoeste 0 -- -- 56
2019-05-21 00:00:00 14 4 Sudoeste 10 Oeste 0 -- -- 47
2019-05-20 23:00:00 14.8 3 Sudoeste 8 Sur 0 -- -- 47
2019-05-20 22:00:00 15.8 3 Sudoeste 7 Sudoeste 0 -- -- 43
2019-05-20 21:00:00 16.9 3 Sudoeste 13 Oeste 0 -- -- 39
2019-05-20 20:00:00 17.9 4 Oeste 15 Oeste 0 -- -- 36
2019-05-20 19:00:00 19.3 8 Noroeste 20 Noroeste 0 -- -- 33
2019-05-20 18:00:00 19.3 7 Noroeste 18 Noroeste 0 -- -- 32
2019-05-20 17:00:00 19.6 8 Oeste 21 Noroeste 0 -- -- 33
2019-05-20 16:00:00 19.3 6 Noroeste 19 Noroeste 0 -- -- 36
2019-05-20 15:00:00 19.1 6 Norte 15 Oeste 0 -- -- 35
2019-05-20 14:00:00 18.1 8 Noroeste 17 Noroeste 0 -- -- 39
2019-05-20 13:00:00 17.1 7 Noroeste 18 Norte 0 -- -- 41
2019-05-20 12:00:00 16.6 5 Noroeste 14 Noroeste 0 -- -- 45
2019-05-20 11:00:00 15.4 4 Oeste 10 Noroeste 0 -- -- 43
2019-05-20 10:00:00 14.6 0 Calma 7 Noroeste 0 -- -- 47
2019-05-20 09:00:00 13.7 0 Calma 6 Oeste 0 -- -- 49
2019-05-20 08:00:00 8.7 3 Sur 6 Sudeste 0 -- -- 64
2019-05-20 07:00:00 8.1 3 Sur 7 Sur 0 -- -- 59
2019-05-20 06:00:00 8.8 5 Sur 7 Sudeste 0 -- -- 56
2019-05-20 05:00:00 8.6 5 Sudeste 6 Sur 0 -- -- 58
2019-05-20 04:00:00 8.4 4 Sur 6 Sur 0 -- -- 56
2019-05-20 03:00:00 8.6 5 Sur 8 Sudoeste 0 -- -- 53
2019-05-20 02:00:00 9.3 5 Sur 7 Sudoeste 0 -- -- 52
2019-05-20 01:00:00 10.1 4 Sudoeste 8 Sur 0 -- -- 50
2019-05-20 00:00:00 10.6 4 Sur 8 Sur 0 -- -- 50
2019-05-19 23:00:00 11.6 5 Sudoeste 9 Sur 0 -- -- 44
2019-05-19 22:00:00 12.7 3 Sudoeste 18 Noroeste 0 -- -- 38
2019-05-19 21:00:00 14.5 5 Oeste 17 Noroeste 0 -- -- 38
2019-05-19 20:00:00 16 7 Oeste 25 Noroeste 0 -- -- 35
2019-05-19 19:00:00 17.7 9 Oeste 25 Noroeste 0 -- -- 35
2019-05-19 18:00:00 17.8 9 Noroeste 28 Oeste 0 -- -- 32
2019-05-19 17:00:00 17.9 10 Noroeste 28 Noroeste 0 -- -- 30
2019-05-19 16:00:00 17.9 9 Noroeste 27 Noroeste 0 -- -- 34
2019-05-19 15:00:00 17 9 Oeste 25 Noroeste 0 -- -- 32
2019-05-19 14:00:00 16 7 Oeste 22 Oeste 0 -- -- 37
2019-05-19 13:00:00 15.6 8 Sudoeste 19 Oeste 0 -- -- 39
2019-05-19 12:00:00 14.7 6 Noroeste 16 Noroeste 0 -- -- 39
2019-05-19 11:00:00 13.8 5 Noroeste 13 Norte 0 -- -- 51
2019-05-19 10:00:00 12 3 Noroeste 8 Noroeste 0 -- -- 55
2019-05-19 09:00:00 10.1 3 Noroeste 8 Noroeste 0 -- -- 61
2019-05-19 08:00:00 5.8 0 Calma 6 Sur 0 -- -- 75
2019-05-19 07:00:00 4.6 3 Sur 5 Sudeste 0 -- -- 78
2019-05-19 06:00:00 4.9 2 Sur 4 Sur 0 -- -- 79
2019-05-19 05:00:00 6.3 4 Sur 10 Sudoeste 0 -- -- 73
2019-05-19 04:00:00 7 5 Sur 12 Sur 0 -- -- 69
2019-05-19 03:00:00 7.9 6 Sudoeste 12 Sudoeste 0 -- -- 61
2019-05-19 02:00:00 7.8 4 Sudoeste 12 Sudoeste 0 -- -- 60
2019-05-19 01:00:00 9 6 Sudoeste 17 Sur 0 -- -- 54
2019-05-19 00:00:00 9.2 6 Sudoeste 15 Sudoeste 0 -- -- 55
2019-05-18 23:00:00 10 6 Sudoeste 18 Oeste 0 -- -- 50
2019-05-18 22:00:00 10.8 5 Oeste 18 Noroeste 0 -- -- 47
2019-05-18 21:00:00 12.8 7 Oeste 29 Noroeste 0 -- -- 40
2019-05-18 20:00:00 15.1 8 Noroeste 24 Oeste 0 -- -- 36
2019-05-18 19:00:00 15.7 9 Oeste 26 Noroeste 0 -- -- 37
2019-05-18 18:00:00 14.9 9 Noroeste 30 Norte 0 -- -- 41
2019-05-18 17:00:00 15.3 9 Noroeste 28 Oeste 0 -- -- 40
2019-05-18 16:00:00 16.1 9 Noroeste 27 Noroeste 0 -- -- 40
2019-05-18 15:00:00 15.2 7 Oeste 23 Noroeste 0 -- -- 38
2019-05-18 14:00:00 14 9 Noroeste 23 Oeste 0 -- -- 38
2019-05-18 13:00:00 12.6 8 Noroeste 23 Oeste 0 -- -- 45
2019-05-18 12:00:00 11.4 10 Oeste 27 Oeste 0 -- -- 52
2019-05-18 11:00:00 10.7 9 Oeste 22 Oeste 0 -- -- 51
2019-05-18 10:00:00 9.7 7 Noroeste 19 Noroeste 0 -- -- 53
2019-05-18 09:00:00 8.3 3 Noroeste 10 Oeste 0 -- -- 58
2019-05-18 08:00:00 5.4 2 Oeste 17 Noroeste 0 -- -- 70
2019-05-18 07:00:00 5.4 6 Oeste 14 Oeste 0 -- -- 73
2019-05-18 06:00:00 6.1 5 Sudoeste 15 Sudoeste 0 -- -- 74
2019-05-18 05:00:00 6.9 6 Sudoeste 18 Oeste 0 -- -- 71
2019-05-18 04:00:00 7.3 5 Sudoeste 13 Sur 0 -- -- 73
2019-05-18 03:00:00 7.8 5 Sudoeste 18 Oeste 0 -- -- 71
2019-05-18 02:00:00 8.4 5 Sudoeste 17 Oeste 0 -- -- 69
2019-05-18 01:00:00 8.9 6 Sudoeste 18 Sudoeste 0 -- -- 66
2019-05-18 00:00:00 9.3 5 Sudoeste 13 Oeste 0 -- -- 61
2019-05-17 23:00:00 10 6 Sudoeste 17 Oeste 0 -- -- 57
2019-05-17 22:00:00 11.2 8 Oeste 20 Oeste 0 -- -- 52
2019-05-17 21:00:00 12.9 8 Oeste 28 Oeste 0 -- -- 45
2019-05-17 20:00:00 15.1 12 Noroeste 28 Noroeste 0 -- -- 39
2019-05-17 19:00:00 15.8 13 Noroeste 39 Noroeste 0 -- -- 43
2019-05-17 18:00:00 16.2 12 Oeste 34 Noroeste 0 -- -- 44
2019-05-17 17:00:00 16.1 12 Noroeste 33 Noroeste 0 -- -- 44
2019-05-17 16:00:00 15.8 11 Noroeste 30 Noroeste 0 -- -- 46
2019-05-17 15:00:00 14 10 Oeste 31 Noroeste 0 -- -- 53
2019-05-17 14:00:00 13.1 13 Noroeste 27 Noroeste 0 -- -- 58
2019-05-17 13:00:00 11.7 11 Noroeste 26 Noroeste 0 -- -- 61
2019-05-17 12:00:00 10.5 11 Noroeste 24 Noroeste 0 -- -- 63
2019-05-17 11:00:00 9.2 9 Oeste 22 Oeste 0 -- -- 65
2019-05-17 10:00:00 8.9 8 Oeste 23 Oeste 0 -- -- 69
2019-05-17 09:00:00 7.4 5 Oeste 22 Sudoeste 0 -- -- 73
2019-05-17 08:00:00 5.1 6 Oeste 25 Oeste 0 -- -- 82
2019-05-17 07:00:00 5 7 Oeste 25 Noroeste 0 -- -- 83
2019-05-17 06:00:00 5.3 8 Sudoeste 22 Oeste 0 -- -- 82
2019-05-17 05:00:00 6.1 9 Sudoeste 29 Oeste 0 -- -- 80
2019-05-17 04:00:00 7 9 Sudoeste 23 Sudoeste 0 -- -- 79
2019-05-17 03:00:00 7.7 9 Oeste 25 Oeste 0 -- -- 78
2019-05-17 02:00:00 8.4 10 Sudoeste 35 Oeste 0 -- -- 75
2019-05-17 01:00:00 9.5 10 Oeste 32 Noroeste 0 -- -- 69
2019-05-17 00:00:00 10.5 9 Oeste 33 Oeste 0 -- -- 68